sensor_id;sensor_type;location;lat;lon;timestamp;P1;durP1;ratioP1;P2;durP2;ratioP2
23001;SDS011;11667;51.706;4.856;2023-05-06T00:00:19;21.80;;;12.15;;
23001;SDS011;11667;51.706;4.856;2023-05-06T00:02:49;22.85;;;12.53;;
23001;SDS011;11667;51.706;4.856;2023-05-06T00:05:18;22.98;;;12.70;;
23001;SDS011;11667;51.706;4.856;2023-05-06T00:07:47;20.70;;;12.95;;
23001;SDS011;11667;51.706;4.856;2023-05-06T00:10:17;23.18;;;12.70;;
23001;SDS011;11667;51.706;4.856;2023-05-06T00:12:48;26.42;;;13.22;;
23001;SDS011;11667;51.706;4.856;2023-05-06T00:15:17;23.30;;;13.48;;
23001;SDS011;11667;51.706;4.856;2023-05-06T00:17:47;23.12;;;13.18;;
23001;SDS011;11667;51.706;4.856;2023-05-06T00:20:16;23.32;;;13.08;;
23001;SDS011;11667;51.706;4.856;2023-05-06T00:22:46;22.77;;;13.65;;
23001;SDS011;11667;51.706;4.856;2023-05-06T00:25:16;21.25;;;13.58;;
23001;SDS011;11667;51.706;4.856;2023-05-06T00:27:45;24.90;;;14.13;;
23001;SDS011;11667;51.706;4.856;2023-05-06T00:30:15;24.25;;;13.70;;
23001;SDS011;11667;51.706;4.856;2023-05-06T00:32:44;26.97;;;13.75;;
23001;SDS011;11667;51.706;4.856;2023-05-06T00:35:14;25.52;;;13.90;;
23001;SDS011;11667;51.706;4.856;2023-05-06T00:37:44;22.95;;;13.30;;
23001;SDS011;11667;51.706;4.856;2023-05-06T00:40:14;26.45;;;14.38;;
23001;SDS011;11667;51.706;4.856;2023-05-06T00:42:43;26.57;;;13.95;;
23001;SDS011;11667;51.706;4.856;2023-05-06T00:45:13;28.07;;;14.38;;
23001;SDS011;11667;51.706;4.856;2023-05-06T00:47:42;26.87;;;13.93;;
23001;SDS011;11667;51.706;4.856;2023-05-06T00:50:11;27.05;;;14.87;;
23001;SDS011;11667;51.706;4.856;2023-05-06T00:52:41;25.80;;;14.43;;
23001;SDS011;11667;51.706;4.856;2023-05-06T00:55:11;29.98;;;14.78;;
23001;SDS011;11667;51.706;4.856;2023-05-06T00:57:40;26.52;;;14.43;;
23001;SDS011;11667;51.706;4.856;2023-05-06T01:00:10;24.37;;;13.83;;
23001;SDS011;11667;51.706;4.856;2023-05-06T01:02:40;28.50;;;14.58;;
23001;SDS011;11667;51.706;4.856;2023-05-06T01:05:11;26.23;;;14.18;;
23001;SDS011;11667;51.706;4.856;2023-05-06T01:12:53;31.80;;;15.50;;
23001;SDS011;11667;51.706;4.856;2023-05-06T01:15:32;27.65;;;15.90;;
23001;SDS011;11667;51.706;4.856;2023-05-06T01:18:08;28.65;;;15.03;;
23001;SDS011;11667;51.706;4.856;2023-05-06T01:20:37;28.42;;;15.10;;
23001;SDS011;11667;51.706;4.856;2023-05-06T01:23:12;27.77;;;15.05;;
23001;SDS011;11667;51.706;4.856;2023-05-06T01:25:42;29.35;;;15.65;;
23001;SDS011;11667;51.706;4.856;2023-05-06T01:28:11;27.32;;;15.13;;
23001;SDS011;11667;51.706;4.856;2023-05-06T01:33:47;29.92;;;15.68;;
23001;SDS011;11667;51.706;4.856;2023-05-06T01:36:37;30.85;;;14.93;;
23001;SDS011;11667;51.706;4.856;2023-05-06T01:39:15;28.40;;;15.48;;
23001;SDS011;11667;51.706;4.856;2023-05-06T01:41:46;31.90;;;16.15;;
23001;SDS011;11667;51.706;4.856;2023-05-06T01:44:16;31.25;;;16.60;;
23001;SDS011;11667;51.706;4.856;2023-05-06T01:46:49;30.55;;;17.02;;
23001;SDS011;11667;51.706;4.856;2023-05-06T01:49:19;30.25;;;16.23;;
23001;SDS011;11667;51.706;4.856;2023-05-06T01:51:51;32.38;;;16.32;;
23001;SDS011;11667;51.706;4.856;2023-05-06T01:54:22;30.10;;;16.73;;
23001;SDS011;11667;51.706;4.856;2023-05-06T01:56:51;27.58;;;15.15;;
23001;SDS011;11667;51.706;4.856;2023-05-06T01:59:21;26.20;;;14.93;;
23001;SDS011;11667;51.706;4.856;2023-05-06T02:01:50;30.45;;;15.58;;
23001;SDS011;11667;51.706;4.856;2023-05-06T02:04:20;29.67;;;16.42;;
23001;SDS011;11667;51.706;4.856;2023-05-06T02:06:50;32.40;;;16.80;;
23001;SDS011;11667;51.706;4.856;2023-05-06T02:09:20;33.28;;;16.48;;
23001;SDS011;11667;51.706;4.856;2023-05-06T02:11:51;30.55;;;16.50;;
23001;SDS011;11667;51.706;4.856;2023-05-06T02:14:21;31.97;;;16.52;;
23001;SDS011;11667;51.706;4.856;2023-05-06T02:16:50;31.27;;;17.30;;
23001;SDS011;11667;51.706;4.856;2023-05-06T02:19:20;31.17;;;16.75;;
23001;SDS011;11667;51.706;4.856;2023-05-06T02:21:49;30.27;;;17.07;;
23001;SDS011;11667;51.706;4.856;2023-05-06T02:24:19;34.55;;;18.48;;
23001;SDS011;11667;51.706;4.856;2023-05-06T02:26:48;33.33;;;18.32;;
23001;SDS011;11667;51.706;4.856;2023-05-06T02:29:17;34.55;;;17.35;;
23001;SDS011;11667;51.706;4.856;2023-05-06T02:31:47;30.08;;;16.55;;
23001;SDS011;11667;51.706;4.856;2023-05-06T02:34:16;33.70;;;17.42;;
23001;SDS011;11667;51.706;4.856;2023-05-06T02:36:46;31.17;;;16.97;;
23001;SDS011;11667;51.706;4.856;2023-05-06T02:39:15;31.07;;;17.32;;
23001;SDS011;11667;51.706;4.856;2023-05-06T02:41:44;33.92;;;17.70;;
23001;SDS011;11667;51.706;4.856;2023-05-06T02:44:14;32.28;;;17.35;;
23001;SDS011;11667;51.706;4.856;2023-05-06T02:46:43;36.08;;;18.57;;
23001;SDS011;11667;51.706;4.856;2023-05-06T02:49:13;33.48;;;18.45;;
23001;SDS011;11667;51.706;4.856;2023-05-06T02:51:43;36.33;;;18.15;;
23001;SDS011;11667;51.706;4.856;2023-05-06T02:54:12;34.15;;;17.57;;
23001;SDS011;11667;51.706;4.856;2023-05-06T02:56:41;32.38;;;17.73;;
23001;SDS011;11667;51.706;4.856;2023-05-06T02:59:12;31.75;;;17.20;;
23001;SDS011;11667;51.706;4.856;2023-05-06T03:01:42;33.23;;;18.10;;
23001;SDS011;11667;51.706;4.856;2023-05-06T03:04:11;32.55;;;17.87;;
23001;SDS011;11667;51.706;4.856;2023-05-06T03:06:41;33.42;;;17.95;;
23001;SDS011;11667;51.706;4.856;2023-05-06T03:09:10;31.85;;;17.30;;
23001;SDS011;11667;51.706;4.856;2023-05-06T03:11:40;33.55;;;18.27;;
23001;SDS011;11667;51.706;4.856;2023-05-06T03:14:09;32.17;;;17.80;;
23001;SDS011;11667;51.706;4.856;2023-05-06T03:16:39;31.77;;;17.35;;
23001;SDS011;11667;51.706;4.856;2023-05-06T03:19:09;34.67;;;17.92;;
23001;SDS011;11667;51.706;4.856;2023-05-06T03:21:39;33.00;;;18.07;;
23001;SDS011;11667;51.706;4.856;2023-05-06T03:24:09;32.17;;;17.80;;
23001;SDS011;11667;51.706;4.856;2023-05-06T03:26:38;33.38;;;17.85;;
23001;SDS011;11667;51.706;4.856;2023-05-06T03:29:08;34.38;;;18.37;;
23001;SDS011;11667;51.706;4.856;2023-05-06T03:31:39;34.55;;;18.00;;
23001;SDS011;11667;51.706;4.856;2023-05-06T03:34:09;35.38;;;18.20;;
23001;SDS011;11667;51.706;4.856;2023-05-06T03:36:39;31.65;;;17.05;;
23001;SDS011;11667;51.706;4.856;2023-05-06T03:39:08;34.80;;;17.57;;
23001;SDS011;11667;51.706;4.856;2023-05-06T03:41:38;32.98;;;17.30;;
23001;SDS011;11667;51.706;4.856;2023-05-06T03:44:08;33.63;;;18.07;;
23001;SDS011;11667;51.706;4.856;2023-05-06T03:46:38;34.33;;;17.45;;
23001;SDS011;11667;51.706;4.856;2023-05-06T03:49:09;35.92;;;18.07;;
23001;SDS011;11667;51.706;4.856;2023-05-06T03:51:39;33.45;;;17.70;;
23001;SDS011;11667;51.706;4.856;2023-05-06T03:54:09;36.48;;;18.92;;
23001;SDS011;11667;51.706;4.856;2023-05-06T03:56:38;34.98;;;17.70;;
23001;SDS011;11667;51.706;4.856;2023-05-06T03:59:08;33.80;;;18.17;;
23001;SDS011;11667;51.706;4.856;2023-05-06T04:01:38;35.43;;;17.85;;
23001;SDS011;11667;51.706;4.856;2023-05-06T04:04:08;32.75;;;16.70;;
23001;SDS011;11667;51.706;4.856;2023-05-06T04:06:38;32.48;;;17.55;;
23001;SDS011;11667;51.706;4.856;2023-05-06T04:09:07;31.70;;;16.62;;
23001;SDS011;11667;51.706;4.856;2023-05-06T04:11:37;31.27;;;17.57;;
23001;SDS011;11667;51.706;4.856;2023-05-06T04:14:08;37.70;;;18.02;;
23001;SDS011;11667;51.706;4.856;2023-05-06T04:16:37;32.50;;;16.70;;
23001;SDS011;11667;51.706;4.856;2023-05-06T04:19:07;33.98;;;17.82;;
23001;SDS011;11667;51.706;4.856;2023-05-06T04:21:37;32.05;;;17.27;;
23001;SDS011;11667;51.706;4.856;2023-05-06T04:24:08;34.63;;;18.32;;
23001;SDS011;11667;51.706;4.856;2023-05-06T04:26:38;36.30;;;18.05;;
23001;SDS011;11667;51.706;4.856;2023-05-06T04:29:08;33.42;;;17.77;;
23001;SDS011;11667;51.706;4.856;2023-05-06T04:31:39;31.23;;;17.70;;
23001;SDS011;11667;51.706;4.856;2023-05-06T04:34:10;33.92;;;17.98;;
23001;SDS011;11667;51.706;4.856;2023-05-06T04:36:40;34.27;;;18.27;;
23001;SDS011;11667;51.706;4.856;2023-05-06T04:39:26;32.23;;;17.12;;
23001;SDS011;11667;51.706;4.856;2023-05-06T04:41:56;30.80;;;17.23;;
23001;SDS011;11667;51.706;4.856;2023-05-06T04:44:27;31.65;;;17.35;;
23001;SDS011;11667;51.706;4.856;2023-05-06T04:46:57;31.62;;;16.93;;
23001;SDS011;11667;51.706;4.856;2023-05-06T04:49:27;29.57;;;16.85;;
23001;SDS011;11667;51.706;4.856;2023-05-06T04:51:57;32.33;;;16.95;;
23001;SDS011;11667;51.706;4.856;2023-05-06T04:54:28;33.18;;;17.10;;
23001;SDS011;11667;51.706;4.856;2023-05-06T04:56:58;33.10;;;17.17;;
23001;SDS011;11667;51.706;4.856;2023-05-06T04:59:28;31.12;;;17.32;;
23001;SDS011;11667;51.706;4.856;2023-05-06T05:01:58;31.33;;;16.82;;
23001;SDS011;11667;51.706;4.856;2023-05-06T05:04:27;35.48;;;16.73;;
23001;SDS011;11667;51.706;4.856;2023-05-06T05:06:57;31.50;;;16.75;;
23001;SDS011;11667;51.706;4.856;2023-05-06T05:09:28;30.60;;;17.07;;
23001;SDS011;11667;51.706;4.856;2023-05-06T05:11:59;32.25;;;16.55;;
23001;SDS011;11667;51.706;4.856;2023-05-06T05:14:31;32.23;;;17.07;;
23001;SDS011;11667;51.706;4.856;2023-05-06T05:17:00;31.52;;;16.80;;
23001;SDS011;11667;51.706;4.856;2023-05-06T05:19:30;30.48;;;16.65;;
23001;SDS011;11667;51.706;4.856;2023-05-06T05:22:00;30.45;;;16.05;;
23001;SDS011;11667;51.706;4.856;2023-05-06T05:24:29;27.73;;;16.32;;
23001;SDS011;11667;51.706;4.856;2023-05-06T05:26:59;32.40;;;16.07;;
23001;SDS011;11667;51.706;4.856;2023-05-06T05:29:29;24.63;;;14.55;;
23001;SDS011;11667;51.706;4.856;2023-05-06T05:31:58;25.32;;;15.20;;
23001;SDS011;11667;51.706;4.856;2023-05-06T05:34:28;22.40;;;12.90;;
23001;SDS011;11667;51.706;4.856;2023-05-06T05:36:58;23.00;;;12.60;;
23001;SDS011;11667;51.706;4.856;2023-05-06T05:39:28;18.42;;;10.25;;
23001;SDS011;11667;51.706;4.856;2023-05-06T05:41:58;14.73;;;9.18;;
23001;SDS011;11667;51.706;4.856;2023-05-06T05:44:28;14.63;;;8.40;;
23001;SDS011;11667;51.706;4.856;2023-05-06T05:46:57;15.80;;;9.20;;
23001;SDS011;11667;51.706;4.856;2023-05-06T05:49:27;15.28;;;8.23;;
23001;SDS011;11667;51.706;4.856;2023-05-06T05:51:57;21.02;;;9.53;;
23001;SDS011;11667;51.706;4.856;2023-05-06T05:54:27;15.63;;;8.90;;
23001;SDS011;11667;51.706;4.856;2023-05-06T05:56:58;16.67;;;9.30;;
23001;SDS011;11667;51.706;4.856;2023-05-06T05:59:29;18.20;;;9.15;;
23001;SDS011;11667;51.706;4.856;2023-05-06T06:02:01;17.17;;;9.13;;
23001;SDS011;11667;51.706;4.856;2023-05-06T06:04:31;16.80;;;9.30;;
23001;SDS011;11667;51.706;4.856;2023-05-06T06:07:02;17.80;;;9.55;;
23001;SDS011;11667;51.706;4.856;2023-05-06T06:09:33;15.98;;;9.25;;
23001;SDS011;11667;51.706;4.856;2023-05-06T06:12:03;19.02;;;9.80;;
23001;SDS011;11667;51.706;4.856;2023-05-06T06:14:34;16.50;;;8.68;;
23001;SDS011;11667;51.706;4.856;2023-05-06T06:17:04;19.50;;;9.53;;
23001;SDS011;11667;51.706;4.856;2023-05-06T06:19:35;15.45;;;8.35;;
23001;SDS011;11667;51.706;4.856;2023-05-06T06:22:05;18.35;;;9.20;;
23001;SDS011;11667;51.706;4.856;2023-05-06T06:24:35;16.75;;;9.08;;
23001;SDS011;11667;51.706;4.856;2023-05-06T06:27:04;20.97;;;9.70;;
23001;SDS011;11667;51.706;4.856;2023-05-06T06:29:34;18.05;;;9.40;;
23001;SDS011;11667;51.706;4.856;2023-05-06T06:32:04;19.05;;;9.70;;
23001;SDS011;11667;51.706;4.856;2023-05-06T06:34:33;22.62;;;10.30;;
23001;SDS011;11667;51.706;4.856;2023-05-06T06:37:04;18.48;;;9.78;;
23001;SDS011;11667;51.706;4.856;2023-05-06T06:39:34;19.12;;;10.53;;
23001;SDS011;11667;51.706;4.856;2023-05-06T06:42:04;17.87;;;9.65;;
23001;SDS011;11667;51.706;4.856;2023-05-06T06:44:39;19.62;;;9.88;;
23001;SDS011;11667;51.706;4.856;2023-05-06T06:47:08;19.92;;;10.48;;
23001;SDS011;11667;51.706;4.856;2023-05-06T06:49:38;16.93;;;9.43;;
23001;SDS011;11667;51.706;4.856;2023-05-06T06:52:08;17.60;;;9.70;;
23001;SDS011;11667;51.706;4.856;2023-05-06T06:54:37;17.00;;;9.43;;
23001;SDS011;11667;51.706;4.856;2023-05-06T06:57:07;16.15;;;9.10;;
23001;SDS011;11667;51.706;4.856;2023-05-06T06:59:36;15.40;;;8.95;;
23001;SDS011;11667;51.706;4.856;2023-05-06T07:02:06;17.95;;;9.15;;
23001;SDS011;11667;51.706;4.856;2023-05-06T07:04:35;16.90;;;9.18;;
23001;SDS011;11667;51.706;4.856;2023-05-06T07:07:05;16.90;;;9.30;;
23001;SDS011;11667;51.706;4.856;2023-05-06T07:09:34;14.38;;;8.85;;
23001;SDS011;11667;51.706;4.856;2023-05-06T07:12:05;15.60;;;8.43;;
23001;SDS011;11667;51.706;4.856;2023-05-06T07:14:35;15.60;;;8.65;;
23001;SDS011;11667;51.706;4.856;2023-05-06T07:17:04;14.68;;;8.68;;
23001;SDS011;11667;51.706;4.856;2023-05-06T07:19:34;15.53;;;8.50;;
23001;SDS011;11667;51.706;4.856;2023-05-06T07:22:04;16.55;;;9.48;;
23001;SDS011;11667;51.706;4.856;2023-05-06T07:24:33;14.93;;;8.38;;
23001;SDS011;11667;51.706;4.856;2023-05-06T07:27:03;14.68;;;8.58;;
23001;SDS011;11667;51.706;4.856;2023-05-06T07:29:32;14.43;;;8.68;;
23001;SDS011;11667;51.706;4.856;2023-05-06T07:32:03;15.05;;;8.43;;
23001;SDS011;11667;51.706;4.856;2023-05-06T07:34:33;14.53;;;9.38;;
23001;SDS011;11667;51.706;4.856;2023-05-06T07:37:03;15.28;;;8.93;;
23001;SDS011;11667;51.706;4.856;2023-05-06T07:39:34;19.32;;;10.08;;
23001;SDS011;11667;51.706;4.856;2023-05-06T07:42:04;14.23;;;8.93;;
23001;SDS011;11667;51.706;4.856;2023-05-06T07:44:35;18.57;;;9.30;;
23001;SDS011;11667;51.706;4.856;2023-05-06T07:47:04;17.02;;;9.18;;
23001;SDS011;11667;51.706;4.856;2023-05-06T07:49:34;16.77;;;8.93;;
23001;SDS011;11667;51.706;4.856;2023-05-06T07:52:04;14.50;;;8.70;;
23001;SDS011;11667;51.706;4.856;2023-05-06T07:54:33;15.83;;;9.03;;
23001;SDS011;11667;51.706;4.856;2023-05-06T07:57:03;16.65;;;9.33;;
23001;SDS011;11667;51.706;4.856;2023-05-06T07:59:32;15.58;;;9.35;;
23001;SDS011;11667;51.706;4.856;2023-05-06T08:02:01;17.30;;;9.73;;
23001;SDS011;11667;51.706;4.856;2023-05-06T08:04:31;15.70;;;9.20;;
23001;SDS011;11667;51.706;4.856;2023-05-06T08:07:01;14.55;;;8.98;;
23001;SDS011;11667;51.706;4.856;2023-05-06T08:09:30;17.00;;;10.65;;
23001;SDS011;11667;51.706;4.856;2023-05-06T08:11:59;16.73;;;10.00;;
23001;SDS011;11667;51.706;4.856;2023-05-06T08:14:29;18.90;;;10.50;;
23001;SDS011;11667;51.706;4.856;2023-05-06T08:16:58;15.75;;;9.90;;
23001;SDS011;11667;51.706;4.856;2023-05-06T08:19:28;16.12;;;8.65;;
23001;SDS011;11667;51.706;4.856;2023-05-06T08:21:57;16.60;;;9.45;;
23001;SDS011;11667;51.706;4.856;2023-05-06T08:24:27;17.73;;;9.85;;
23001;SDS011;11667;51.706;4.856;2023-05-06T08:26:56;15.95;;;8.73;;
23001;SDS011;11667;51.706;4.856;2023-05-06T08:29:25;14.03;;;8.88;;
23001;SDS011;11667;51.706;4.856;2023-05-06T08:31:55;13.15;;;8.23;;
23001;SDS011;11667;51.706;4.856;2023-05-06T08:34:24;15.32;;;8.63;;
23001;SDS011;11667;51.706;4.856;2023-05-06T08:36:54;14.75;;;8.88;;
23001;SDS011;11667;51.706;4.856;2023-05-06T08:39:23;14.85;;;8.38;;
23001;SDS011;11667;51.706;4.856;2023-05-06T08:41:54;12.05;;;7.67;;
23001;SDS011;11667;51.706;4.856;2023-05-06T08:44:24;14.50;;;8.38;;
23001;SDS011;11667;51.706;4.856;2023-05-06T08:46:53;13.18;;;7.83;;
23001;SDS011;11667;51.706;4.856;2023-05-06T08:49:23;11.93;;;7.35;;
23001;SDS011;11667;51.706;4.856;2023-05-06T08:51:53;10.55;;;5.75;;
23001;SDS011;11667;51.706;4.856;2023-05-06T08:54:24;11.63;;;5.70;;
23001;SDS011;11667;51.706;4.856;2023-05-06T08:56:54;10.93;;;6.28;;
23001;SDS011;11667;51.706;4.856;2023-05-06T08:59:24;9.45;;;5.50;;
23001;SDS011;11667;51.706;4.856;2023-05-06T09:01:56;9.57;;;5.97;;
23001;SDS011;11667;51.706;4.856;2023-05-06T09:04:28;11.75;;;6.58;;
23001;SDS011;11667;51.706;4.856;2023-05-06T09:06:58;10.60;;;5.83;;
23001;SDS011;11667;51.706;4.856;2023-05-06T09:09:27;10.50;;;6.20;;
23001;SDS011;11667;51.706;4.856;2023-05-06T09:11:57;11.97;;;7.22;;
23001;SDS011;11667;51.706;4.856;2023-05-06T09:14:28;8.85;;;5.22;;
23001;SDS011;11667;51.706;4.856;2023-05-06T09:16:58;9.88;;;5.95;;
23001;SDS011;11667;51.706;4.856;2023-05-06T09:19:28;9.10;;;5.35;;
23001;SDS011;11667;51.706;4.856;2023-05-06T09:21:57;10.40;;;5.00;;
23001;SDS011;11667;51.706;4.856;2023-05-06T09:24:27;7.28;;;4.83;;
23001;SDS011;11667;51.706;4.856;2023-05-06T09:26:56;8.65;;;4.70;;
23001;SDS011;11667;51.706;4.856;2023-05-06T09:29:26;8.38;;;4.58;;
23001;SDS011;11667;51.706;4.856;2023-05-06T09:31:55;7.20;;;4.50;;
23001;SDS011;11667;51.706;4.856;2023-05-06T09:34:24;6.83;;;4.50;;
23001;SDS011;11667;51.706;4.856;2023-05-06T09:36:55;7.55;;;4.40;;
23001;SDS011;11667;51.706;4.856;2023-05-06T09:39:25;6.72;;;4.47;;
23001;SDS011;11667;51.706;4.856;2023-05-06T09:41:54;7.85;;;4.20;;
23001;SDS011;11667;51.706;4.856;2023-05-06T09:44:24;8.53;;;3.95;;
23001;SDS011;11667;51.706;4.856;2023-05-06T09:46:54;9.38;;;4.40;;
23001;SDS011;11667;51.706;4.856;2023-05-06T09:49:25;6.87;;;4.15;;
23001;SDS011;11667;51.706;4.856;2023-05-06T09:51:54;7.25;;;3.83;;
23001;SDS011;11667;51.706;4.856;2023-05-06T09:54:24;7.85;;;4.10;;
23001;SDS011;11667;51.706;4.856;2023-05-06T09:56:54;7.40;;;4.10;;
23001;SDS011;11667;51.706;4.856;2023-05-06T09:59:26;6.43;;;3.77;;
23001;SDS011;11667;51.706;4.856;2023-05-06T10:01:56;7.17;;;4.03;;
23001;SDS011;11667;51.706;4.856;2023-05-06T10:04:26;6.20;;;3.70;;
23001;SDS011;11667;51.706;4.856;2023-05-06T10:06:58;6.87;;;3.70;;
23001;SDS011;11667;51.706;4.856;2023-05-06T10:09:27;7.87;;;3.83;;
23001;SDS011;11667;51.706;4.856;2023-05-06T10:11:58;6.05;;;3.40;;
23001;SDS011;11667;51.706;4.856;2023-05-06T10:14:29;7.30;;;3.50;;
23001;SDS011;11667;51.706;4.856;2023-05-06T10:16:58;5.90;;;3.77;;
23001;SDS011;11667;51.706;4.856;2023-05-06T10:19:28;6.58;;;3.72;;
23001;SDS011;11667;51.706;4.856;2023-05-06T10:22:05;6.17;;;3.67;;
23001;SDS011;11667;51.706;4.856;2023-05-06T10:24:43;7.05;;;3.17;;
23001;SDS011;11667;51.706;4.856;2023-05-06T10:27:14;5.22;;;3.55;;
23001;SDS011;11667;51.706;4.856;2023-05-06T10:29:45;5.65;;;2.92;;
23001;SDS011;11667;51.706;4.856;2023-05-06T10:32:16;6.70;;;3.37;;
23001;SDS011;11667;51.706;4.856;2023-05-06T10:34:52;5.83;;;3.22;;
23001;SDS011;11667;51.706;4.856;2023-05-06T10:37:27;6.35;;;3.50;;
23001;SDS011;11667;51.706;4.856;2023-05-06T10:39:53;6.17;;;3.52;;
23001;SDS011;11667;51.706;4.856;2023-05-06T10:42:25;6.50;;;3.58;;
23001;SDS011;11667;51.706;4.856;2023-05-06T10:52:57;6.97;;;3.40;;
23001;SDS011;11667;51.706;4.856;2023-05-06T10:55:29;7.67;;;3.22;;
23001;SDS011;11667;51.706;4.856;2023-05-06T10:58:10;5.45;;;2.98;;
23001;SDS011;11667;51.706;4.856;2023-05-06T11:00:41;4.75;;;2.75;;
23001;SDS011;11667;51.706;4.856;2023-05-06T11:03:13;4.08;;;2.47;;
23001;SDS011;11667;51.706;4.856;2023-05-06T11:05:48;3.33;;;2.30;;
23001;SDS011;11667;51.706;4.856;2023-05-06T11:08:23;4.12;;;2.10;;
23001;SDS011;11667;51.706;4.856;2023-05-06T11:10:53;3.67;;;1.80;;
23001;SDS011;11667;51.706;4.856;2023-05-06T11:13:26;3.27;;;1.80;;
23001;SDS011;11667;51.706;4.856;2023-05-06T11:15:57;3.58;;;2.05;;
23001;SDS011;11667;51.706;4.856;2023-05-06T11:26:19;3.30;;;2.15;;
23001;SDS011;11667;51.706;4.856;2023-05-06T11:28:48;4.83;;;2.00;;
23001;SDS011;11667;51.706;4.856;2023-05-06T11:31:18;3.52;;;2.00;;
23001;SDS011;11667;51.706;4.856;2023-05-06T11:33:49;2.33;;;1.62;;
23001;SDS011;11667;51.706;4.856;2023-05-06T11:36:20;2.95;;;1.35;;
23001;SDS011;11667;51.706;4.856;2023-05-06T11:38:50;3.77;;;1.75;;
23001;SDS011;11667;51.706;4.856;2023-05-06T11:41:20;2.83;;;1.57;;
23001;SDS011;11667;51.706;4.856;2023-05-06T11:43:50;2.37;;;1.50;;
23001;SDS011;11667;51.706;4.856;2023-05-06T11:46:22;2.95;;;1.40;;
23001;SDS011;11667;51.706;4.856;2023-05-06T11:48:52;1.65;;;1.47;;
23001;SDS011;11667;51.706;4.856;2023-05-06T11:51:21;2.08;;;1.32;;
23001;SDS011;11667;51.706;4.856;2023-05-06T11:53:51;3.92;;;1.50;;
23001;SDS011;11667;51.706;4.856;2023-05-06T11:56:22;2.67;;;1.60;;
23001;SDS011;11667;51.706;4.856;2023-05-06T11:58:53;2.95;;;1.87;;
23001;SDS011;11667;51.706;4.856;2023-05-06T12:01:22;2.72;;;1.30;;
23001;SDS011;11667;51.706;4.856;2023-05-06T12:03:53;2.40;;;1.30;;
23001;SDS011;11667;51.706;4.856;2023-05-06T12:06:35;2.67;;;1.40;;
23001;SDS011;11667;51.706;4.856;2023-05-06T12:09:06;3.95;;;1.50;;
23001;SDS011;11667;51.706;4.856;2023-05-06T12:11:39;1.87;;;1.40;;
23001;SDS011;11667;51.706;4.856;2023-05-06T12:14:10;3.70;;;1.92;;
23001;SDS011;11667;51.706;4.856;2023-05-06T12:16:40;2.22;;;1.70;;
23001;SDS011;11667;51.706;4.856;2023-05-06T12:19:10;2.77;;;1.75;;
23001;SDS011;11667;51.706;4.856;2023-05-06T12:21:39;3.72;;;2.00;;
23001;SDS011;11667;51.706;4.856;2023-05-06T12:24:08;3.05;;;1.67;;
23001;SDS011;11667;51.706;4.856;2023-05-06T12:26:43;2.30;;;1.60;;
23001;SDS011;11667;51.706;4.856;2023-05-06T12:29:14;2.45;;;1.50;;
23001;SDS011;11667;51.706;4.856;2023-05-06T12:31:44;2.08;;;1.50;;
23001;SDS011;11667;51.706;4.856;2023-05-06T12:34:15;3.00;;;1.75;;
23001;SDS011;11667;51.706;4.856;2023-05-06T12:36:45;1.85;;;1.50;;
23001;SDS011;11667;51.706;4.856;2023-05-06T12:39:15;1.92;;;1.62;;
23001;SDS011;11667;51.706;4.856;2023-05-06T12:41:44;2.87;;;1.50;;
23001;SDS011;11667;51.706;4.856;2023-05-06T12:44:29;3.30;;;1.70;;
23001;SDS011;11667;51.706;4.856;2023-05-06T12:47:00;2.52;;;1.80;;
23001;SDS011;11667;51.706;4.856;2023-05-06T12:49:50;3.33;;;1.77;;
23001;SDS011;11667;51.706;4.856;2023-05-06T12:52:24;2.52;;;1.70;;
23001;SDS011;11667;51.706;4.856;2023-05-06T12:54:55;3.27;;;1.60;;
23001;SDS011;11667;51.706;4.856;2023-05-06T12:57:25;3.55;;;1.60;;
23001;SDS011;11667;51.706;4.856;2023-05-06T12:59:54;3.10;;;1.50;;
23001;SDS011;11667;51.706;4.856;2023-05-06T13:02:24;2.12;;;1.55;;
23001;SDS011;11667;51.706;4.856;2023-05-06T13:04:53;2.22;;;1.52;;
23001;SDS011;11667;51.706;4.856;2023-05-06T13:07:23;2.80;;;1.35;;
23001;SDS011;11667;51.706;4.856;2023-05-06T13:09:52;3.05;;;1.65;;
23001;SDS011;11667;51.706;4.856;2023-05-06T13:12:22;2.80;;;1.80;;
23001;SDS011;11667;51.706;4.856;2023-05-06T13:14:51;3.25;;;1.77;;
23001;SDS011;11667;51.706;4.856;2023-05-06T13:17:21;3.15;;;1.70;;
23001;SDS011;11667;51.706;4.856;2023-05-06T13:19:52;2.83;;;1.85;;
23001;SDS011;11667;51.706;4.856;2023-05-06T13:22:22;3.12;;;1.92;;
23001;SDS011;11667;51.706;4.856;2023-05-06T13:24:52;2.90;;;1.75;;
23001;SDS011;11667;51.706;4.856;2023-05-06T13:27:21;3.10;;;1.72;;
23001;SDS011;11667;51.706;4.856;2023-05-06T13:29:51;2.10;;;1.40;;
23001;SDS011;11667;51.706;4.856;2023-05-06T13:32:20;2.83;;;1.52;;
23001;SDS011;11667;51.706;4.856;2023-05-06T13:34:49;3.87;;;1.52;;
23001;SDS011;11667;51.706;4.856;2023-05-06T13:37:19;2.42;;;1.47;;
23001;SDS011;11667;51.706;4.856;2023-05-06T13:39:48;3.62;;;1.40;;
23001;SDS011;11667;51.706;4.856;2023-05-06T13:42:17;2.52;;;1.40;;
23001;SDS011;11667;51.706;4.856;2023-05-06T13:44:47;5.62;;;1.30;;
23001;SDS011;11667;51.706;4.856;2023-05-06T13:47:16;4.17;;;1.50;;
23001;SDS011;11667;51.706;4.856;2023-05-06T13:49:46;2.55;;;1.30;;
23001;SDS011;11667;51.706;4.856;2023-05-06T13:52:16;2.37;;;1.10;;
23001;SDS011;11667;51.706;4.856;2023-05-06T13:54:46;3.87;;;1.60;;
23001;SDS011;11667;51.706;4.856;2023-05-06T13:57:16;4.28;;;1.70;;
23001;SDS011;11667;51.706;4.856;2023-05-06T13:59:45;3.60;;;1.62;;
23001;SDS011;11667;51.706;4.856;2023-05-06T14:02:15;2.98;;;1.40;;
23001;SDS011;11667;51.706;4.856;2023-05-06T14:04:45;2.25;;;1.50;;
23001;SDS011;11667;51.706;4.856;2023-05-06T14:07:15;3.67;;;1.70;;
23001;SDS011;11667;51.706;4.856;2023-05-06T14:09:44;3.70;;;1.60;;
23001;SDS011;11667;51.706;4.856;2023-05-06T14:12:14;2.58;;;1.50;;
23001;SDS011;11667;51.706;4.856;2023-05-06T14:14:43;3.87;;;1.37;;
23001;SDS011;11667;51.706;4.856;2023-05-06T14:17:12;2.25;;;1.17;;
23001;SDS011;11667;51.706;4.856;2023-05-06T14:19:42;2.25;;;1.55;;
23001;SDS011;11667;51.706;4.856;2023-05-06T14:22:12;2.62;;;1.50;;
23001;SDS011;11667;51.706;4.856;2023-05-06T14:24:42;2.98;;;1.50;;
23001;SDS011;11667;51.706;4.856;2023-05-06T14:27:12;2.47;;;1.27;;
23001;SDS011;11667;51.706;4.856;2023-05-06T14:29:42;3.33;;;1.50;;
23001;SDS011;11667;51.706;4.856;2023-05-06T14:32:12;2.62;;;1.40;;
23001;SDS011;11667;51.706;4.856;2023-05-06T14:34:42;2.67;;;1.42;;
23001;SDS011;11667;51.706;4.856;2023-05-06T14:37:11;1.40;;;1.30;;
23001;SDS011;11667;51.706;4.856;2023-05-06T14:39:40;3.50;;;1.35;;
23001;SDS011;11667;51.706;4.856;2023-05-06T14:42:09;3.25;;;1.37;;
23001;SDS011;11667;51.706;4.856;2023-05-06T14:44:39;2.08;;;1.15;;
23001;SDS011;11667;51.706;4.856;2023-05-06T14:47:09;2.35;;;1.40;;
23001;SDS011;11667;51.706;4.856;2023-05-06T14:49:39;3.42;;;1.40;;
23001;SDS011;11667;51.706;4.856;2023-05-06T14:52:08;4.03;;;1.22;;
23001;SDS011;11667;51.706;4.856;2023-05-06T14:54:38;3.27;;;1.32;;
23001;SDS011;11667;51.706;4.856;2023-05-06T14:57:09;2.52;;;1.20;;
23001;SDS011;11667;51.706;4.856;2023-05-06T14:59:38;2.70;;;1.25;;
23001;SDS011;11667;51.706;4.856;2023-05-06T15:04:47;2.62;;;1.30;;
23001;SDS011;11667;51.706;4.856;2023-05-06T15:07:16;3.20;;;1.30;;
23001;SDS011;11667;51.706;4.856;2023-05-06T15:09:46;2.60;;;1.20;;
23001;SDS011;11667;51.706;4.856;2023-05-06T15:12:15;4.20;;;1.45;;
23001;SDS011;11667;51.706;4.856;2023-05-06T15:14:44;2.00;;;1.15;;
23001;SDS011;11667;51.706;4.856;2023-05-06T15:17:13;1.62;;;1.10;;